Time;durP1;ratioP1;P1;durP2;ratioP2;P2;SDS_P1;SDS_P2;PMS_P1;PMS_P2;Temp;Humidity;BMP_temperature;BMP_pressure;BME280_temperature;BME280_humidity;BME280_pressure;Samples;Min_cycle;Max_cycle;Signal;HPM_P1;HPM_P2
2022/11/14 00:02:23;;;;;;;5.70;5.17;;;;;;;;;;4989713;28;20178;-59
2022/11/14 00:04:49;;;;;;;5.47;4.97;;;;;;;;;;4969208;28;20187;-59
2022/11/14 00:07:15;;;;;;;5.80;5.27;;;;;;;;;;4990268;28;20191;-63
2022/11/14 00:09:41;;;;;;;5.83;5.00;;;;;;;;;;4996559;28;20600;-59
2022/11/14 00:12:11;;;;;;;8.70;5.90;;;;;;;;;;4992353;28;20737;-59
2022/11/14 00:14:37;;;;;;;5.60;4.83;;;;;;;;;;5004946;28;20197;-59
2022/11/14 00:17:04;;;;;;;5.20;4.70;;;;;;;;;;4977211;28;20179;-59
2022/11/14 00:19:31;;;;;;;5.97;5.10;;;;;;;;;;4994423;28;20174;-61
2022/11/14 00:21:59;;;;;;;5.83;4.40;;;;;;;;;;4997506;28;20210;-59
2022/11/14 00:24:25;;;;;;;5.90;5.30;;;;;;;;;;4993709;28;20249;-59
2022/11/14 00:26:51;;;;;;;5.37;4.87;;;;;;;;;;4996925;28;20632;-59
2022/11/14 00:29:17;;;;;;;6.80;5.17;;;;;;;;;;4983969;28;20259;-59
2022/11/14 00:31:43;;;;;;;6.03;5.43;;;;;;;;;;4984251;28;20287;-59
2022/11/14 00:34:09;;;;;;;6.20;5.27;;;;;;;;;;4986180;28;20218;-59
2022/11/14 00:36:36;;;;;;;6.13;5.53;;;;;;;;;;4986396;28;20540;-59
2022/11/14 00:39:02;;;;;;;6.03;4.83;;;;;;;;;;4991234;28;20576;-58
2022/11/14 00:41:28;;;;;;;4.93;4.43;;;;;;;;;;4992129;28;20300;-59
2022/11/14 00:43:54;;;;;;;5.67;4.93;;;;;;;;;;4989619;28;20245;-59
2022/11/14 00:46:20;;;;;;;5.67;5.07;;;;;;;;;;4984752;28;20255;-59
2022/11/14 00:48:46;;;;;;;5.93;5.00;;;;;;;;;;4989710;28;20649;-59
2022/11/14 00:51:19;;;;;;;5.63;5.00;;;;;;;;;;4986085;28;20813;-59
2022/11/14 00:53:45;;;;;;;4.67;4.27;;;;;;;;;;4988108;28;20182;-59
2022/11/14 00:56:11;;;;;;;5.77;4.73;;;;;;;;;;4977741;28;20652;-59
2022/11/14 00:58:37;;;;;;;6.13;4.80;;;;;;;;;;4987838;28;20649;-59
2022/11/14 01:01:03;;;;;;;5.57;4.97;;;;;;;;;;4984401;28;20194;-59
2022/11/14 01:03:29;;;;;;;5.43;4.40;;;;;;;;;;4994106;28;20621;-59
2022/11/14 01:05:55;;;;;;;6.47;4.60;;;;;;;;;;4989760;28;20578;-59
2022/11/14 01:08:21;;;;;;;5.43;4.80;;;;;;;;;;4995200;28;20191;-59
2022/11/14 01:10:55;;;;;;;5.47;4.97;;;;;;;;;;4987377;28;20552;-59
2022/11/14 01:13:21;;;;;;;5.37;4.77;;;;;;;;;;4990776;28;20191;-60
2022/11/14 01:15:48;;;;;;;4.93;4.43;;;;;;;;;;5001571;28;20190;-59
2022/11/14 01:18:16;;;;;;;5.07;4.57;;;;;;;;;;4998483;28;20198;-59
2022/11/14 01:20:43;;;;;;;5.77;5.17;;;;;;;;;;4987222;28;20207;-59
2022/11/14 01:23:09;;;;;;;5.47;4.90;;;;;;;;;;4988402;28;20191;-58
2022/11/14 01:25:36;;;;;;;4.87;4.37;;;;;;;;;;4987504;28;20191;-59
2022/11/14 01:28:06;;;;;;;4.97;4.47;;;;;;;;;;4993864;28;20242;-58
2022/11/14 01:30:32;;;;;;;5.70;4.80;;;;;;;;;;4987157;28;20178;-59
2022/11/14 01:32:58;;;;;;;5.60;5.10;;;;;;;;;;4991656;28;20264;-59
2022/11/14 01:35:24;;;;;;;4.67;4.10;;;;;;;;;;4992388;28;20195;-59
2022/11/14 01:37:50;;;;;;;7.37;5.30;;;;;;;;;;4999805;28;20546;-59
2022/11/14 01:40:16;;;;;;;4.73;4.27;;;;;;;;;;4989067;28;20661;-59
2022/11/14 01:42:42;;;;;;;4.37;3.97;;;;;;;;;;4979452;28;20276;-59
2022/11/14 01:45:27;;;;;;;5.03;4.63;;;;;;;;;;4970999;28;20186;-59
2022/11/14 01:47:53;;;;;;;8.27;4.67;;;;;;;;;;4985400;28;20530;-59
2022/11/14 01:50:19;;;;;;;5.17;4.30;;;;;;;;;;4994895;28;21060;-58
2022/11/14 01:52:45;;;;;;;4.80;4.40;;;;;;;;;;4993813;28;20222;-59
2022/11/14 01:55:11;;;;;;;6.37;4.60;;;;;;;;;;4988496;28;20202;-59
2022/11/14 01:57:43;;;;;;;5.13;4.63;;;;;;;;;;4982637;28;20202;-59
2022/11/14 02:00:11;;;;;;;5.17;4.63;;;;;;;;;;4994189;28;20221;-59
2022/11/14 02:02:38;;;;;;;6.37;4.80;;;;;;;;;;4978527;28;20210;-59
2022/11/14 02:05:06;;;;;;;5.20;4.70;;;;;;;;;;4991639;28;20605;-59
2022/11/14 02:07:34;;;;;;;4.87;4.20;;;;;;;;;;4994498;28;20545;-59
2022/11/14 02:10:01;;;;;;;5.70;4.77;;;;;;;;;;4986350;28;20351;-59
2022/11/14 02:12:27;;;;;;;5.03;4.33;;;;;;;;;;4989041;28;20639;-59
2022/11/14 02:14:55;;;;;;;4.87;4.30;;;;;;;;;;4984868;28;20183;-59
2022/11/14 02:17:21;;;;;;;5.23;4.73;;;;;;;;;;4988270;28;20190;-59
2022/11/14 02:19:49;;;;;;;6.00;4.67;;;;;;;;;;4999517;28;20495;-59
2022/11/14 02:22:15;;;;;;;5.93;4.80;;;;;;;;;;4979290;28;20201;-59
2022/11/14 02:24:42;;;;;;;5.77;4.87;;;;;;;;;;5001178;28;20174;-59
2022/11/14 02:27:08;;;;;;;7.23;4.73;;;;;;;;;;4998568;28;20312;-59
2022/11/14 02:29:34;;;;;;;6.20;4.47;;;;;;;;;;5006326;28;20653;-59
2022/11/14 02:32:00;;;;;;;5.47;4.90;;;;;;;;;;5001613;28;20638;-59
2022/11/14 02:34:26;;;;;;;5.53;4.70;;;;;;;;;;4988496;28;20183;-59
2022/11/14 02:36:53;;;;;;;4.73;4.20;;;;;;;;;;4995113;28;20179;-59
2022/11/14 02:39:19;;;;;;;4.73;4.30;;;;;;;;;;4994814;28;20182;-59
2022/11/14 02:41:45;;;;;;;4.83;4.43;;;;;;;;;;4992967;28;20202;-59
2022/11/14 02:44:11;;;;;;;5.60;4.67;;;;;;;;;;4999630;28;20580;-59
2022/11/14 02:46:37;;;;;;;5.10;4.60;;;;;;;;;;4988012;28;20253;-59
2022/11/14 02:49:03;;;;;;;5.00;4.47;;;;;;;;;;4988747;28;20591;-59
2022/11/14 02:51:29;;;;;;;4.60;4.17;;;;;;;;;;5002000;28;20550;-59
2022/11/14 02:53:55;;;;;;;5.20;4.43;;;;;;;;;;4991136;28;20190;-59
2022/11/14 02:56:21;;;;;;;4.83;4.40;;;;;;;;;;4995713;28;20207;-59
2022/11/14 02:58:47;;;;;;;4.67;4.27;;;;;;;;;;5002465;28;20186;-59
2022/11/14 03:01:13;;;;;;;4.77;4.30;;;;;;;;;;4970573;28;20210;-59
2022/11/14 03:03:39;;;;;;;4.80;4.33;;;;;;;;;;4994938;28;20250;-59
2022/11/14 03:06:05;;;;;;;5.00;4.50;;;;;;;;;;4976911;28;20686;-59
2022/11/14 03:08:32;;;;;;;5.93;4.67;;;;;;;;;;4997183;28;20179;-59
2022/11/14 03:11:03;;;;;;;7.63;4.57;;;;;;;;;;4994204;28;21147;-59
2022/11/14 03:13:29;;;;;;;5.03;4.53;;;;;;;;;;4989640;28;20198;-60
2022/11/14 03:15:55;;;;;;;4.67;4.03;;;;;;;;;;4972617;28;20182;-59
2022/11/14 03:18:22;;;;;;;5.07;4.57;;;;;;;;;;4987019;28;20199;-59
2022/11/14 03:20:48;;;;;;;4.97;4.47;;;;;;;;;;4992526;28;20700;-59
2022/11/14 03:23:14;;;;;;;5.77;4.83;;;;;;;;;;4988280;28;20609;-59
2022/11/14 03:25:40;;;;;;;5.17;4.53;;;;;;;;;;4989776;28;20447;-59
2022/11/14 03:28:06;;;;;;;5.47;4.80;;;;;;;;;;4987372;28;20188;-59
2022/11/14 03:30:32;;;;;;;6.27;4.57;;;;;;;;;;4995708;28;20217;-59
2022/11/14 03:32:58;;;;;;;5.47;4.67;;;;;;;;;;4987476;28;20183;-59
2022/11/14 03:35:24;;;;;;;4.27;3.87;;;;;;;;;;4992037;28;20266;-59
2022/11/14 03:37:50;;;;;;;6.60;5.03;;;;;;;;;;4991135;28;20265;-59
2022/11/14 03:40:16;;;;;;;6.10;4.77;;;;;;;;;;4994754;28;20209;-60
2022/11/14 03:42:42;;;;;;;4.83;4.33;;;;;;;;;;4999001;28;20175;-59
2022/11/14 03:45:09;;;;;;;5.27;4.77;;;;;;;;;;4994297;28;20255;-59
2022/11/14 03:47:35;;;;;;;4.60;4.20;;;;;;;;;;4991365;28;20214;-59
2022/11/14 03:50:01;;;;;;;4.33;3.93;;;;;;;;;;4980044;28;20677;-59
2022/11/14 03:52:27;;;;;;;6.73;4.63;;;;;;;;;;4993818;28;20278;-59
2022/11/14 03:54:53;;;;;;;5.57;5.07;;;;;;;;;;4996628;28;20273;-59
2022/11/14 03:57:19;;;;;;;4.27;3.87;;;;;;;;;;4991394;28;20190;-59
2022/11/14 03:59:45;;;;;;;5.30;4.80;;;;;;;;;;4994014;28;20179;-59
2022/11/14 04:02:11;;;;;;;5.10;4.53;;;;;;;;;;4990180;28;20182;-59
2022/11/14 04:04:37;;;;;;;4.90;4.40;;;;;;;;;;4989961;28;20273;-59
2022/11/14 04:07:03;;;;;;;4.93;4.43;;;;;;;;;;4986707;28;20266;-59
2022/11/14 04:09:29;;;;;;;4.87;4.37;;;;;;;;;;4997004;28;20186;-59
2022/11/14 04:11:55;;;;;;;5.10;4.60;;;;;;;;;;4974826;28;20226;-59
2022/11/14 04:14:21;;;;;;;5.03;4.33;;;;;;;;;;4986158;28;20542;-59
2022/11/14 04:16:47;;;;;;;10.27;9.57;;;;;;;;;;4985662;28;20195;-59
2022/11/14 04:19:13;;;;;;;5.73;4.40;;;;;;;;;;4989434;28;20492;-59
2022/11/14 04:21:39;;;;;;;4.57;4.17;;;;;;;;;;4995486;28;20244;-59
2022/11/14 04:24:06;;;;;;;5.00;4.20;;;;;;;;;;4992569;28;20510;-59
2022/11/14 04:26:32;;;;;;;6.07;4.23;;;;;;;;;;4989362;28;20805;-59
2022/11/14 04:28:58;;;;;;;4.70;4.30;;;;;;;;;;4989749;28;20614;-59
2022/11/14 04:31:24;;;;;;;6.47;5.17;;;;;;;;;;4991876;28;20230;-59
2022/11/14 04:33:50;;;;;;;5.50;4.53;;;;;;;;;;4989214;28;20174;-59
2022/11/14 04:36:16;;;;;;;5.47;4.73;;;;;;;;;;5000802;28;20194;-59
2022/11/14 04:38:42;;;;;;;4.63;4.23;;;;;;;;;;4995840;28;20495;-59
2022/11/14 04:41:09;;;;;;;5.87;5.13;;;;;;;;;;4990583;28;20996;-59
2022/11/14 04:43:35;;;;;;;7.30;5.00;;;;;;;;;;5001034;28;20253;-58
2022/11/14 04:46:01;;;;;;;5.07;4.47;;;;;;;;;;4985679;28;20199;-59
2022/11/14 04:48:27;;;;;;;4.60;4.20;;;;;;;;;;4992070;28;20183;-59
2022/11/14 04:50:53;;;;;;;4.57;3.83;;;;;;;;;;4997758;28;20183;-58
2022/11/14 04:53:19;;;;;;;5.57;4.80;;;;;;;;;;4999929;28;20179;-59
2022/11/14 04:55:45;;;;;;;5.57;4.97;;;;;;;;;;4986736;28;20660;-59
2022/11/14 04:58:11;;;;;;;5.33;4.83;;;;;;;;;;4993033;28;20189;-59
2022/11/14 05:00:37;;;;;;;6.10;5.60;;;;;;;;;;4983990;28;20198;-59
2022/11/14 05:03:03;;;;;;;4.93;4.50;;;;;;;;;;4988072;28;20179;-59
2022/11/14 05:05:29;;;;;;;5.20;4.70;;;;;;;;;;4986617;28;20187;-59
2022/11/14 05:07:55;;;;;;;4.83;4.10;;;;;;;;;;4980669;28;20630;-59
2022/11/14 05:10:21;;;;;;;6.87;6.20;;;;;;;;;;4994658;28;20202;-59
2022/11/14 05:12:47;;;;;;;4.53;4.03;;;;;;;;;;4991360;28;20624;-59
2022/11/14 05:15:13;;;;;;;4.93;4.47;;;;;;;;;;4986720;28;20187;-59
2022/11/14 05:17:39;;;;;;;4.67;4.13;;;;;;;;;;4964000;28;20183;-59
2022/11/14 05:20:06;;;;;;;5.30;4.73;;;;;;;;;;4988670;28;20210;-59
2022/11/14 05:22:32;;;;;;;5.40;4.57;;;;;;;;;;4993798;28;20326;-59
2022/11/14 05:24:58;;;;;;;4.00;3.60;;;;;;;;;;4993100;28;20539;-59
2022/11/14 05:27:24;;;;;;;4.83;4.00;;;;;;;;;;4988914;28;20183;-59
2022/11/14 05:29:50;;;;;;;8.00;7.30;;;;;;;;;;4997646;28;20255;-59
2022/11/14 05:32:16;;;;;;;4.67;4.27;;;;;;;;;;4987592;28;20286;-59
2022/11/14 05:34:42;;;;;;;4.37;3.97;;;;;;;;;;4991377;28;20191;-59
2022/11/14 05:37:08;;;;;;;4.33;3.47;;;;;;;;;;4999983;28;20171;-59
2022/11/14 05:39:34;;;;;;;4.47;3.97;;;;;;;;;;4980716;28;20698;-59
2022/11/14 05:42:00;;;;;;;3.97;3.57;;;;;;;;;;4991316;28;20238;-59
2022/11/14 05:44:26;;;;;;;4.03;3.67;;;;;;;;;;4991661;28;20578;-59
2022/11/14 05:46:52;;;;;;;5.10;4.10;;;;;;;;;;4994673;28;20199;-59
2022/11/14 05:49:18;;;;;;;4.43;3.57;;;;;;;;;;4967122;28;20278;-59
2022/11/14 05:51:44;;;;;;;3.50;3.20;;;;;;;;;;4993877;28;20474;-59
2022/11/14 05:54:10;;;;;;;4.33;3.93;;;;;;;;;;4994534;28;20613;-59
2022/11/14 05:56:37;;;;;;;4.10;3.53;;;;;;;;;;4987645;28;20560;-59
2022/11/14 05:59:03;;;;;;;4.43;4.03;;;;;;;;;;4987092;28;20795;-59
2022/11/14 06:01:29;;;;;;;4.33;3.83;;;;;;;;;;4985092;28;20211;-59
2022/11/14 06:03:55;;;;;;;4.80;3.80;;;;;;;;;;4971002;28;20608;-59
2022/11/14 06:06:21;;;;;;;4.07;3.30;;;;;;;;;;4985145;28;20201;-59
2022/11/14 06:08:48;;;;;;;3.90;3.50;;;;;;;;;;4989542;28;20686;-59
2022/11/14 06:11:15;;;;;;;4.70;4.03;;;;;;;;;;4989451;28;20659;-59
2022/11/14 06:13:42;;;;;;;4.43;3.50;;;;;;;;;;4985293;28;20187;-60
2022/11/14 06:16:12;;;;;;;4.43;4.00;;;;;;;;;;4986407;28;20192;-59
2022/11/14 06:18:38;;;;;;;4.70;4.20;;;;;;;;;;4985301;28;20820;-59
2022/11/14 06:21:12;;;;;;;5.23;4.20;;;;;;;;;;4985136;28;20516;-59
2022/11/14 06:23:38;;;;;;;4.83;3.70;;;;;;;;;;4976765;28;20235;-59
2022/11/14 06:26:20;;;;;;;4.87;4.47;;;;;;;;;;4987127;28;20204;-59
2022/11/14 06:28:46;;;;;;;4.80;4.23;;;;;;;;;;4987438;28;20617;-59
2022/11/14 06:31:12;;;;;;;4.67;3.93;;;;;;;;;;4985138;28;20709;-59
2022/11/14 06:33:38;;;;;;;3.77;3.43;;;;;;;;;;4989056;28;20187;-59
2022/11/14 06:36:05;;;;;;;4.40;3.90;;;;;;;;;;4989656;28;20265;-59
2022/11/14 06:38:32;;;;;;;5.83;4.17;;;;;;;;;;4990685;28;20189;-59
2022/11/14 06:41:02;;;;;;;4.70;4.07;;;;;;;;;;4987808;28;20619;-59
2022/11/14 06:43:28;;;;;;;4.60;4.20;;;;;;;;;;4987347;28;20603;-59
2022/11/14 06:45:54;;;;;;;3.93;3.53;;;;;;;;;;4987099;28;20244;-59
2022/11/14 06:48:20;;;;;;;4.63;4.03;;;;;;;;;;4987503;28;20202;-59
2022/11/14 06:50:56;;;;;;;5.47;4.40;;;;;;;;;;4991115;28;20253;-59
2022/11/14 06:53:23;;;;;;;4.93;4.07;;;;;;;;;;4988624;28;20669;-59
2022/11/14 06:55:56;;;;;;;4.93;4.43;;;;;;;;;;4990287;28;20305;-59
2022/11/14 06:58:25;;;;;;;5.40;4.37;;;;;;;;;;4987526;28;20329;-59
2022/11/14 07:00:54;;;;;;;4.40;4.00;;;;;;;;;;4987209;28;20217;-59
2022/11/14 07:03:21;;;;;;;4.40;4.00;;;;;;;;;;4969526;28;20245;-59
2022/11/14 07:05:47;;;;;;;4.40;4.00;;;;;;;;;;4991303;28;20170;-59
2022/11/14 07:08:13;;;;;;;4.67;4.17;;;;;;;;;;4989427;28;20183;-59
2022/11/14 07:10:46;;;;;;;4.27;3.70;;;;;;;;;;4988919;28;20301;-59
2022/11/14 07:13:12;;;;;;;5.47;4.93;;;;;;;;;;4989077;28;20246;-59
2022/11/14 07:15:38;;;;;;;4.90;4.27;;;;;;;;;;4969246;28;20187;-59
2022/11/14 07:18:04;;;;;;;4.67;4.20;;;;;;;;;;4988650;28;20194;-59
2022/11/14 07:20:30;;;;;;;4.67;4.10;;;;;;;;;;4966427;28;21492;-59
2022/11/14 07:22:56;;;;;;;4.50;3.80;;;;;;;;;;4970461;28;20191;-59
2022/11/14 07:25:22;;;;;;;3.93;3.60;;;;;;;;;;4988734;28;20185;-59
2022/11/14 07:27:48;;;;;;;4.97;4.30;;;;;;;;;;4998323;28;20688;-59
2022/11/14 07:30:15;;;;;;;4.63;4.00;;;;;;;;;;4992282;28;20183;-58
2022/11/14 07:32:41;;;;;;;4.30;3.80;;;;;;;;;;4999329;28;20182;-58
2022/11/14 07:35:07;;;;;;;4.30;3.90;;;;;;;;;;5003980;28;20163;-58
2022/11/14 07:37:33;;;;;;;4.70;4.30;;;;;;;;;;5006116;28;20217;-59
2022/11/14 07:39:59;;;;;;;5.83;4.70;;;;;;;;;;4999575;28;20511;-59
2022/11/14 07:42:28;;;;;;;5.27;4.43;;;;;;;;;;4987811;28;20198;-59
2022/11/14 07:44:54;;;;;;;5.47;4.07;;;;;;;;;;4995769;28;20246;-59
2022/11/14 07:47:20;;;;;;;5.13;4.50;;;;;;;;;;4996291;28;20202;-59
2022/11/14 07:49:46;;;;;;;6.37;5.67;;;;;;;;;;4991391;28;20229;-59
2022/11/14 07:52:12;;;;;;;7.23;5.53;;;;;;;;;;5004781;28;20544;-59
2022/11/14 07:54:38;;;;;;;6.67;4.70;;;;;;;;;;5003060;28;20580;-59
2022/11/14 07:57:04;;;;;;;5.23;4.73;;;;;;;;;;5008915;28;20186;-59
2022/11/14 07:59:30;;;;;;;5.03;4.40;;;;;;;;;;4987944;28;20189;-59
2022/11/14 08:01:56;;;;;;;5.70;4.73;;;;;;;;;;5004095;28;20206;-59
2022/11/14 08:04:22;;;;;;;5.27;4.77;;;;;;;;;;4999519;28;20278;-59
2022/11/14 08:06:48;;;;;;;5.43;4.93;;;;;;;;;;5004425;28;20186;-59
2022/11/14 08:09:15;;;;;;;5.57;5.03;;;;;;;;;;4986093;28;20193;-59
2022/11/14 08:11:46;;;;;;;5.80;5.03;;;;;;;;;;4995322;28;20641;-59
2022/11/14 08:14:13;;;;;;;5.40;4.87;;;;;;;;;;4995037;28;20163;-59
2022/11/14 08:16:39;;;;;;;6.00;5.40;;;;;;;;;;5002803;28;20678;-59
2022/11/14 08:19:05;;;;;;;5.40;4.90;;;;;;;;;;5005578;28;20163;-59
2022/11/14 08:21:31;;;;;;;6.53;4.90;;;;;;;;;;5005146;28;20716;-59
2022/11/14 08:23:57;;;;;;;7.30;5.80;;;;;;;;;;4999333;28;20178;-59
2022/11/14 08:26:23;;;;;;;6.70;5.20;;;;;;;;;;4999512;28;20171;-58
2022/11/14 08:28:53;;;;;;;9.83;6.47;;;;;;;;;;5005426;28;20221;-59
2022/11/14 08:31:19;;;;;;;8.33;6.83;;;;;;;;;;5002426;28;20204;-59
2022/11/14 08:33:46;;;;;;;8.53;7.33;;;;;;;;;;4991296;28;20211;-58
2022/11/14 08:36:12;;;;;;;9.67;7.00;;;;;;;;;;5002874;28;20178;-59
2022/11/14 08:38:38;;;;;;;10.10;8.07;;;;;;;;;;5005572;28;20367;-58
2022/11/14 08:41:04;;;;;;;10.10;7.70;;;;;;;;;;5001125;28;20210;-59
2022/11/14 08:43:30;;;;;;;8.27;7.23;;;;;;;;;;5005277;28;20622;-59
2022/11/14 08:46:00;;;;;;;10.27;7.97;;;;;;;;;;5004413;28;20214;-59
2022/11/14 08:48:26;;;;;;;8.87;7.60;;;;;;;;;;5004847;28;20241;-59
2022/11/14 08:50:52;;;;;;;10.53;7.93;;;;;;;;;;5004878;28;20178;-59
2022/11/14 08:53:18;;;;;;;10.80;8.23;;;;;;;;;;4982006;28;20240;-59
2022/11/14 08:55:45;;;;;;;9.80;8.30;;;;;;;;;;5000771;28;20230;-59
2022/11/14 08:58:11;;;;;;;11.00;9.17;;;;;;;;;;4994778;28;20186;-58
2022/11/14 09:00:37;;;;;;;10.70;8.23;;;;;;;;;;4986476;28;20272;-59
2022/11/14 09:03:12;;;;;;;12.40;9.20;;;;;;;;;;5003967;28;20163;-59
2022/11/14 09:05:38;;;;;;;11.30;9.27;;;;;;;;;;4991306;28;20181;-58
2022/11/14 09:08:04;;;;;;;11.97;9.67;;;;;;;;;;4996088;28;20752;-59
2022/11/14 09:10:31;;;;;;;11.23;8.70;;;;;;;;;;5000935;28;20190;-59
2022/11/14 09:12:58;;;;;;;12.83;9.23;;;;;;;;;;4992351;28;20693;-59
2022/11/14 09:15:24;;;;;;;12.33;10.20;;;;;;;;;;4975707;28;20669;-59
2022/11/14 09:17:53;;;;;;;11.70;9.17;;;;;;;;;;4984431;28;20248;-59
2022/11/14 09:20:20;;;;;;;12.23;9.40;;;;;;;;;;4984780;28;20206;-59
2022/11/14 09:22:46;;;;;;;12.50;9.33;;;;;;;;;;4978507;28;20182;-59
2022/11/14 09:25:12;;;;;;;13.77;10.50;;;;;;;;;;4999742;28;20828;-59
2022/11/14 09:27:38;;;;;;;12.13;9.53;;;;;;;;;;4986118;28;20619;-59
2022/11/14 09:30:05;;;;;;;13.17;9.83;;;;;;;;;;4986146;28;20728;-59
2022/11/14 09:32:31;;;;;;;12.83;9.77;;;;;;;;;;4980532;28;20199;-59
2022/11/14 09:34:57;;;;;;;14.37;10.47;;;;;;;;;;4971900;28;20501;-58
2022/11/14 09:37:23;;;;;;;13.90;10.83;;;;;;;;;;4988872;28;20519;-59
2022/11/14 09:39:49;;;;;;;13.93;10.53;;;;;;;;;;4988778;28;20496;-59
2022/11/14 09:42:19;;;;;;;14.50;10.37;;;;;;;;;;4988832;28;20198;-59
2022/11/14 09:45:01;;;;;;;14.43;10.93;;;;;;;;;;4989040;28;20523;-59
2022/11/14 09:47:29;;;;;;;13.43;10.90;;;;;;;;;;4983911;28;20214;-58
2022/11/14 09:49:58;;;;;;;15.30;11.57;;;;;;;;;;4982243;28;20479;-58
2022/11/14 09:52:24;;;;;;;15.20;11.10;;;;;;;;;;4970902;28;20246;-58
2022/11/14 09:54:58;;;;;;;14.30;10.67;;;;;;;;;;4971062;28;20468;-59
2022/11/14 09:57:24;;;;;;;15.47;10.73;;;;;;;;;;4988669;28;20636;-58
2022/11/14 09:59:50;;;;;;;15.47;11.27;;;;;;;;;;4987893;28;20784;-59
2022/11/14 10:02:35;;;;;;;15.90;10.90;;;;;;;;;;4986606;28;20199;-59
2022/11/14 10:05:06;;;;;;;13.00;10.53;;;;;;;;;;4987568;28;20183;-59
2022/11/14 10:07:51;;;;;;;15.10;11.30;;;;;;;;;;4970093;28;20187;-59
2022/11/14 10:10:23;;;;;;;18.73;11.20;;;;;;;;;;4963200;28;20171;-59
2022/11/14 10:13:01;;;;;;;15.73;11.97;;;;;;;;;;4983939;28;20239;-58
2022/11/14 10:15:31;;;;;;;16.30;11.37;;;;;;;;;;4982240;28;20172;-59
2022/11/14 10:18:02;;;;;;;16.67;11.13;;;;;;;;;;4987677;28;20171;-58
2022/11/14 10:20:36;;;;;;;17.77;10.57;;;;;;;;;;4982605;28;20254;-58
2022/11/14 10:23:20;;;;;;;12.87;10.07;;;;;;;;;;4987145;28;20686;-58
2022/11/14 10:26:07;;;;;;;11.67;9.67;;;;;;;;;;4986916;28;20583;-59
2022/11/14 10:28:43;;;;;;;13.97;9.80;;;;;;;;;;4968410;28;20250;-58
2022/11/14 10:31:33;;;;;;;14.07;10.90;;;;;;;;;;4979070;28;20189;-58
2022/11/14 10:34:09;;;;;;;14.77;9.93;;;;;;;;;;4976452;28;20203;-59
2022/11/14 10:36:56;;;;;;;12.57;9.83;;;;;;;;;;4983612;28;20183;-59
2022/11/14 10:39:37;;;;;;;14.37;9.47;;;;;;;;;;4986189;28;20452;-59
2022/11/14 10:42:08;;;;;;;13.47;9.60;;;;;;;;;;4972829;28;20246;-59
2022/11/14 10:44:37;;;;;;;12.83;8.90;;;;;;;;;;4979983;28;20175;-58
2022/11/14 10:47:06;;;;;;;10.73;8.53;;;;;;;;;;4982640;28;20195;-58
2022/11/14 10:49:37;;;;;;;9.20;7.40;;;;;;;;;;4951655;28;20275;-59
2022/11/14 10:52:06;;;;;;;12.50;9.23;;;;;;;;;;4984737;28;20678;-58
2022/11/14 10:54:32;;;;;;;12.00;8.87;;;;;;;;;;4950741;28;20188;-59
2022/11/14 10:56:58;;;;;;;11.27;8.30;;;;;;;;;;4951815;28;20187;-58
2022/11/14 10:59:26;;;;;;;10.87;8.13;;;;;;;;;;4967974;28;20255;-59
2022/11/14 11:01:54;;;;;;;9.40;7.00;;;;;;;;;;4983996;28;20199;-58
2022/11/14 11:04:28;;;;;;;10.80;7.73;;;;;;;;;;4987700;28;20215;-59
2022/11/14 11:11:28;;;;;;;10.23;7.47;;;;;;;;;;4975426;28;20187;-59
2022/11/14 11:12:49;;;;;;;8.20;6.60;;;;;;;;;;4951825;28;20223;-59
2022/11/14 11:15:22;;;;;;;9.00;6.43;;;;;;;;;;4971592;28;20496;-59
2022/11/14 11:17:55;;;;;;;8.00;6.13;;;;;;;;;;4986659;28;20467;-59
2022/11/14 11:20:26;;;;;;;6.27;5.50;;;;;;;;;;4986702;28;20389;-60
2022/11/14 11:23:10;;;;;;;7.30;6.10;;;;;;;;;;4967568;28;20266;-59
2022/11/14 11:25:37;;;;;;;8.47;6.00;;;;;;;;;;4974549;28;20282;-59
2022/11/14 11:28:17;;;;;;;10.33;5.70;;;;;;;;;;4986495;28;20235;-59
2022/11/14 11:30:55;;;;;;;6.77;5.63;;;;;;;;;;4980093;28;20191;-59
2022/11/14 11:33:23;;;;;;;7.37;6.20;;;;;;;;;;4985488;28;20213;-59
2022/11/14 11:35:49;;;;;;;7.60;6.47;;;;;;;;;;4986101;28;20870;-59
2022/11/14 11:38:19;;;;;;;7.53;6.07;;;;;;;;;;4983571;28;20394;-59
2022/11/14 11:40:50;;;;;;;8.17;6.47;;;;;;;;;;4980391;28;20223;-59
2022/11/14 11:43:26;;;;;;;8.50;6.13;;;;;;;;;;4973661;28;20235;-59
2022/11/14 11:45:54;;;;;;;6.97;5.80;;;;;;;;;;4981798;28;20785;-59
2022/11/14 11:48:21;;;;;;;8.37;6.33;;;;;;;;;;4975682;28;20280;-59
2022/11/14 11:50:48;;;;;;;9.20;7.00;;;;;;;;;;4979086;28;20815;-59
2022/11/14 11:53:22;;;;;;;9.30;7.80;;;;;;;;;;4951163;28;20172;-60
2022/11/14 11:55:51;;;;;;;9.13;8.10;;;;;;;;;;4975276;28;20538;-59
2022/11/14 11:58:29;;;;;;;9.70;7.03;;;;;;;;;;4981827;28;20246;-59
2022/11/14 12:00:55;;;;;;;12.63;8.07;;;;;;;;;;4980285;28;20278;-59
2022/11/14 12:03:22;;;;;;;9.13;7.33;;;;;;;;;;4969154;28;20540;-59
2022/11/14 12:05:48;;;;;;;8.80;7.50;;;;;;;;;;4975036;28;20251;-59
2022/11/14 12:08:33;;;;;;;10.07;8.53;;;;;;;;;;4986284;28;20148;-59
2022/11/14 12:11:06;;;;;;;10.73;8.10;;;;;;;;;;4984450;28;20233;-59
2022/11/14 12:13:53;;;;;;;11.63;8.57;;;;;;;;;;4993391;28;20218;-59
2022/11/14 12:16:27;;;;;;;9.93;7.60;;;;;;;;;;4995175;28;20257;-59
2022/11/14 12:19:11;;;;;;;10.67;8.23;;;;;;;;;;4984301;28;20445;-59
2022/11/14 12:21:46;;;;;;;9.53;8.33;;;;;;;;;;4991431;28;20347;-59
2022/11/14 12:24:41;;;;;;;10.03;7.93;;;;;;;;;;5000927;28;20218;-59
2022/11/14 12:27:27;;;;;;;10.43;7.77;;;;;;;;;;4915105;28;20217;-60
2022/11/14 12:30:13;;;;;;;13.00;9.60;;;;;;;;;;4991840;28;20170;-59
2022/11/14 12:32:44;;;;;;;11.97;8.67;;;;;;;;;;5004668;28;20155;-59
2022/11/14 12:35:17;;;;;;;9.70;8.20;;;;;;;;;;5005624;28;20167;-59
2022/11/14 12:37:44;;;;;;;11.03;8.07;;;;;;;;;;4999464;28;20187;-59
2022/11/14 12:40:20;;;;;;;9.43;8.43;;;;;;;;;;4985595;28;20168;-59
2022/11/14 12:42:47;;;;;;;10.73;7.67;;;;;;;;;;4985805;28;20170;-59
2022/11/14 12:45:32;;;;;;;10.23;8.67;;;;;;;;;;4985262;28;20607;-59
2022/11/14 12:48:14;;;;;;;9.80;8.10;;;;;;;;;;4966921;28;20258;-59
2022/11/14 12:50:41;;;;;;;10.23;8.67;;;;;;;;;;4985463;28;20637;-59
2022/11/14 12:53:34;;;;;;;11.33;8.27;;;;;;;;;;4985434;28;20661;-59
2022/11/14 12:56:19;;;;;;;9.77;7.87;;;;;;;;;;4985521;28;20317;-59
2022/11/14 12:58:45;;;;;;;10.80;8.37;;;;;;;;;;4985423;28;20258;-59
2022/11/14 13:01:14;;;;;;;9.77;8.77;;;;;;;;;;4984398;28;20253;-59
2022/11/14 13:03:54;;;;;;;8.93;8.03;;;;;;;;;;4967698;28;20186;-59
2022/11/14 13:06:30;;;;;;;10.17;7.33;;;;;;;;;;4991082;28;20716;-59
2022/11/14 13:09:08;;;;;;;9.97;8.07;;;;;;;;;;5004982;28;20202;-59
2022/11/14 13:23:29;;;;;;;7.63;6.90;;;;;;;;;;4990684;28;20380;-59
2022/11/14 13:26:10;;;;;;;10.27;8.17;;;;;;;;;;4995721;28;20189;-60
2022/11/14 13:28:50;;;;;;;7.83;7.03;;;;;;;;;;5013065;28;20536;-60
2022/11/14 13:31:16;;;;;;;7.83;6.97;;;;;;;;;;4985465;28;20498;-60
2022/11/14 13:33:47;;;;;;;8.60;7.70;;;;;;;;;;5001367;28;20696;-59
2022/11/14 13:36:24;;;;;;;8.57;7.67;;;;;;;;;;4994727;28;20623;-59
2022/11/14 13:39:01;;;;;;;9.27;7.60;;;;;;;;;;4970794;28;20198;-59
2022/11/14 13:41:46;;;;;;;8.50;7.10;;;;;;;;;;5006339;28;20217;-59
2022/11/14 13:44:31;;;;;;;8.03;7.20;;;;;;;;;;5015695;28;20652;-59
2022/11/14 13:47:06;;;;;;;8.83;7.30;;;;;;;;;;4987921;28;20249;-59
2022/11/14 13:49:40;;;;;;;7.50;6.70;;;;;;;;;;5004582;28;20181;-59
2022/11/14 13:52:06;;;;;;;8.70;7.00;;;;;;;;;;5003902;28;20167;-59
2022/11/14 13:54:32;;;;;;;8.00;7.10;;;;;;;;;;5009849;28;20178;-59
2022/11/14 13:56:59;;;;;;;8.77;7.87;;;;;;;;;;4996532;28;20225;-59
2022/11/14 13:59:34;;;;;;;9.50;6.87;;;;;;;;;;4989530;28;20221;-59
2022/11/14 14:02:06;;;;;;;9.70;8.37;;;;;;;;;;4984098;28;20217;-59
2022/11/14 14:04:51;;;;;;;9.83;7.67;;;;;;;;;;4996148;28;20680;-59
2022/11/14 14:07:36;;;;;;;11.00;8.17;;;;;;;;;;4996703;28;20190;-59
2022/11/14 14:10:04;;;;;;;10.47;7.77;;;;;;;;;;5004218;28;20174;-59
2022/11/14 14:12:56;;;;;;;10.40;8.63;;;;;;;;;;5024636;28;20225;-59
2022/11/14 14:15:25;;;;;;;10.17;8.40;;;;;;;;;;5011067;28;20666;-59
2022/11/14 14:18:10;;;;;;;10.57;8.60;;;;;;;;;;5000292;28;20221;-59
2022/11/14 14:20:40;;;;;;;12.27;9.27;;;;;;;;;;5003463;28;20435;-59
2022/11/14 14:23:20;;;;;;;10.93;8.50;;;;;;;;;;4998065;28;20186;-59
2022/11/14 14:25:52;;;;;;;13.27;9.30;;;;;;;;;;5002070;28;20183;-59
2022/11/14 14:28:48;;;;;;;10.00;8.43;;;;;;;;;;4988263;28;20246;-59
2022/11/14 14:31:15;;;;;;;10.47;8.73;;;;;;;;;;4931464;28;20216;-59
2022/11/14 14:33:42;;;;;;;11.97;10.13;;;;;;;;;;4991688;28;20618;-59
2022/11/14 14:36:17;;;;;;;12.87;9.33;;;;;;;;;;5021830;28;20208;-59
2022/11/14 14:38:44;;;;;;;10.93;8.97;;;;;;;;;;4983510;28;20282;-59
2022/11/14 14:41:11;;;;;;;10.87;9.23;;;;;;;;;;4997761;28;20663;-59
2022/11/14 14:43:37;;;;;;;11.53;8.83;;;;;;;;;;4993689;28;20198;-59
2022/11/14 14:46:03;;;;;;;11.10;9.33;;;;;;;;;;5005153;28;20249;-59
2022/11/14 14:48:34;;;;;;;11.53;9.13;;;;;;;;;;5006995;28;20162;-59
2022/11/14 14:51:06;;;;;;;11.63;8.80;;;;;;;;;;5008227;28;20210;-59
2022/11/14 14:53:33;;;;;;;11.07;9.33;;;;;;;;;;5002939;28;20179;-59
2022/11/14 14:56:00;;;;;;;11.23;9.13;;;;;;;;;;4999815;28;20661;-59
2022/11/14 14:58:31;;;;;;;11.57;8.73;;;;;;;;;;4987646;28;20175;-59
2022/11/14 15:01:14;;;;;;;9.83;8.63;;;;;;;;;;5003274;28;20286;-59
2022/11/14 15:03:42;;;;;;;10.10;8.53;;;;;;;;;;5004257;28;20190;-59
2022/11/14 15:06:28;;;;;;;10.50;8.63;;;;;;;;;;4999093;28;20599;-59